createdAt,value
2018-05-31T00:02:08.266Z,20.40
2018-05-31T00:04:35.876Z,20.40
2018-05-31T00:07:03.405Z,20.40
2018-05-31T00:09:31.013Z,20.40
2018-05-31T00:11:59.311Z,20.50
2018-05-31T00:14:26.812Z,20.40
2018-05-31T00:16:54.362Z,20.40
2018-05-31T00:19:21.869Z,20.40
2018-05-31T00:21:50.162Z,20.40
2018-05-31T00:24:17.679Z,20.40
2018-05-31T00:26:45.196Z,20.40
2018-05-31T00:29:12.712Z,20.40
2018-05-31T00:31:40.987Z,20.20
2018-05-31T00:34:08.497Z,20.20
2018-05-31T00:36:36.021Z,20.30
2018-05-31T00:39:03.709Z,20.20
2018-05-31T00:41:31.333Z,20.20
2018-05-31T00:43:59.629Z,20.10
2018-05-31T00:46:27.129Z,20.10
2018-05-31T00:48:54.672Z,20.20
2018-05-31T00:51:22.311Z,20.10
2018-05-31T00:53:50.556Z,20.10
2018-05-31T00:56:18.841Z,20.00
2018-05-31T00:58:46.409Z,20.00
2018-05-31T01:01:14.060Z,20.10
2018-05-31T01:03:42.360Z,20.20
2018-05-31T01:06:09.926Z,20.20
2018-05-31T01:08:37.451Z,20.10
2018-05-31T01:11:04.983Z,20.00
2018-05-31T01:13:32.565Z,20.00
2018-05-31T01:16:00.849Z,20.00
2018-05-31T01:18:28.402Z,20.00
2018-05-31T01:20:55.935Z,20.00
2018-05-31T01:23:23.458Z,20.00
2018-05-31T01:25:51.125Z,20.00
2018-05-31T01:28:18.650Z,19.90
2018-05-31T01:30:46.294Z,19.90
2018-05-31T01:33:14.652Z,20.00
2018-05-31T01:35:42.937Z,20.20
2018-05-31T01:38:23.166Z,20.30
2018-05-31T01:40:52.184Z,20.30
2018-05-31T01:43:20.502Z,20.40
2018-05-31T01:45:48.026Z,20.30
2018-05-31T01:48:16.295Z,20.30
2018-05-31T01:50:44.600Z,20.20
2018-05-31T01:53:12.141Z,20.20
2018-05-31T01:55:39.690Z,20.10
2018-05-31T01:58:07.963Z,20.40
2018-05-31T02:00:36.240Z,20.60
2018-05-31T02:03:04.629Z,20.70
2018-05-31T02:05:32.153Z,20.60
2018-05-31T02:07:59.687Z,20.60
2018-05-31T02:10:27.234Z,20.70
2018-05-31T02:12:54.784Z,20.60
2018-05-31T02:15:22.313Z,20.50
2018-05-31T02:17:50.585Z,20.50
2018-05-31T02:20:18.861Z,20.50
2018-05-31T02:22:47.240Z,20.40
2018-05-31T02:25:15.528Z,20.40
2018-05-31T02:27:43.076Z,20.40
2018-05-31T02:30:10.595Z,20.40
2018-05-31T02:32:38.222Z,20.30
2018-05-31T02:35:05.795Z,20.30
2018-05-31T02:37:33.305Z,20.30
2018-05-31T02:40:01.636Z,20.30
2018-05-31T02:42:29.209Z,20.30
2018-05-31T02:44:56.713Z,20.40
2018-05-31T02:47:24.232Z,20.30
2018-05-31T02:49:51.786Z,20.30
2018-05-31T02:52:19.293Z,20.30
2018-05-31T02:54:46.801Z,20.20
2018-05-31T02:57:24.229Z,20.30
2018-05-31T02:59:51.743Z,20.20
2018-05-31T03:02:19.305Z,20.10
2018-05-31T03:04:46.803Z,20.00
2018-05-31T03:07:14.358Z,20.10
2018-05-31T03:09:42.668Z,19.90
2018-05-31T03:12:10.208Z,19.90
2018-05-31T03:14:37.740Z,19.80
2018-05-31T03:17:06.133Z,19.80
2018-05-31T03:19:34.427Z,19.80
2018-05-31T03:22:02.061Z,19.80
2018-05-31T03:24:29.563Z,19.90
2018-05-31T03:26:57.484Z,19.90
2018-05-31T03:29:25.893Z,19.90
2018-05-31T03:31:53.398Z,19.90
2018-05-31T03:34:20.959Z,19.70
2018-05-31T03:36:48.537Z,19.70
2018-05-31T03:39:16.109Z,19.70
2018-05-31T03:41:43.634Z,19.70
2018-05-31T03:44:11.121Z,19.60
2018-05-31T03:46:38.640Z,19.70
2018-05-31T03:49:06.228Z,19.60
2018-05-31T03:51:33.759Z,19.60
2018-05-31T03:54:01.410Z,19.60
2018-05-31T03:56:28.889Z,19.60
2018-05-31T03:58:57.370Z,19.60
2018-05-31T04:01:24.930Z,19.60
2018-05-31T04:03:52.421Z,19.70
2018-05-31T04:06:19.953Z,19.70
2018-05-31T04:08:48.221Z,19.80
2018-05-31T04:11:16.576Z,19.80
2018-05-31T04:13:44.170Z,19.80
2018-05-31T04:16:11.696Z,19.80
2018-05-31T04:18:39.225Z,19.90
2018-05-31T04:21:07.902Z,20.00
2018-05-31T04:23:35.517Z,20.20
2018-05-31T04:26:03.800Z,20.40
2018-05-31T04:28:32.130Z,20.50
2018-05-31T04:30:59.637Z,20.50
2018-05-31T04:33:28.121Z,20.80
2018-05-31T04:35:56.497Z,20.70
2018-05-31T04:38:24.751Z,20.80
2018-05-31T04:40:53.053Z,20.40
2018-05-31T04:43:20.575Z,20.40
2018-05-31T04:45:48.152Z,20.30
2018-05-31T04:48:16.423Z,20.10
2018-05-31T04:50:44.689Z,20.00
2018-05-31T04:53:13.005Z,20.10
2018-05-31T04:55:40.508Z,20.10
2018-05-31T04:58:08.087Z,20.30
2018-05-31T05:00:35.840Z,20.40
2018-05-31T05:03:04.128Z,20.60
2018-05-31T05:05:32.408Z,20.70
2018-05-31T05:08:00.733Z,20.90
2018-05-31T05:10:28.385Z,20.80
2018-05-31T05:12:55.946Z,20.90
2018-05-31T05:15:23.473Z,20.80
2018-05-31T05:17:51.773Z,21.30
2018-05-31T05:20:19.291Z,21.30
2018-05-31T05:22:47.730Z,22.50
2018-05-31T05:25:15.336Z,22.50
2018-05-31T05:27:43.825Z,22.00
2018-05-31T05:30:11.380Z,21.90
2018-05-31T05:32:39.788Z,21.40
2018-05-31T05:35:07.321Z,21.40
2018-05-31T05:37:35.587Z,22.10
2018-05-31T05:40:04.017Z,22.50
2018-05-31T05:42:31.559Z,22.50
2018-05-31T05:44:59.097Z,22.00
2018-05-31T05:47:26.673Z,22.50
2018-05-31T05:49:54.302Z,22.80
2018-05-31T05:52:22.688Z,22.70
2018-05-31T05:54:50.952Z,22.10
2018-05-31T05:57:19.318Z,22.00
2018-05-31T05:59:46.846Z,22.00
2018-05-31T06:02:15.177Z,21.80
2018-05-31T06:04:43.510Z,21.50
2018-05-31T06:07:11.140Z,21.50
2018-05-31T06:09:38.799Z,21.30
2018-05-31T06:12:06.329Z,21.50
2018-05-31T06:14:33.855Z,21.60
2018-05-31T06:17:01.396Z,21.50
2018-05-31T06:19:28.946Z,21.50
2018-05-31T06:21:56.513Z,21.60
2018-05-31T06:24:24.183Z,21.50
2018-05-31T06:26:51.693Z,21.50
2018-05-31T06:29:19.234Z,21.70
2018-05-31T06:31:47.520Z,22.30
2018-05-31T06:34:15.058Z,22.20
2018-05-31T06:36:43.507Z,22.30
2018-05-31T06:39:11.186Z,22.30
2018-05-31T06:41:38.712Z,22.40
2018-05-31T06:44:06.266Z,22.50
2018-05-31T06:46:34.026Z,22.60
2018-05-31T06:49:01.575Z,22.60
2018-05-31T06:51:29.272Z,22.50
2018-05-31T06:53:56.836Z,22.40
2018-05-31T06:56:24.353Z,22.20
2018-05-31T06:58:51.892Z,22.10
2018-05-31T07:01:19.508Z,22.20
2018-05-31T07:03:47.020Z,22.40
2018-05-31T07:06:14.570Z,22.50
2018-05-31T07:08:42.132Z,22.40
2018-05-31T07:11:09.661Z,22.50
2018-05-31T07:13:37.952Z,22.80
2018-05-31T07:16:06.261Z,22.50
2018-05-31T07:18:33.788Z,22.50
2018-05-31T07:21:02.090Z,21.90
2018-05-31T07:23:29.598Z,21.90
2018-05-31T07:25:57.209Z,22.20
2018-05-31T07:28:24.879Z,22.20
2018-05-31T07:30:52.403Z,22.20
2018-05-31T07:33:20.013Z,22.10
2018-05-31T07:35:47.593Z,22.20
2018-05-31T07:38:15.100Z,22.30
2018-05-31T07:40:43.379Z,22.40
2018-05-31T07:43:10.919Z,22.50
2018-05-31T07:45:38.445Z,22.40
2018-05-31T07:48:05.944Z,22.50
2018-05-31T07:50:33.520Z,22.40
2018-05-31T07:53:01.016Z,22.50
2018-05-31T07:55:29.309Z,22.50
2018-05-31T07:57:57.604Z,22.50
2018-05-31T08:00:25.149Z,22.50
2018-05-31T08:02:52.717Z,22.50
2018-05-31T08:05:20.260Z,22.40
2018-05-31T08:07:48.532Z,22.20
2018-05-31T08:10:16.815Z,22.30
2018-05-31T08:12:45.094Z,22.30
2018-05-31T08:15:12.667Z,22.30
2018-05-31T08:17:40.351Z,22.30
2018-05-31T08:20:07.896Z,22.30
2018-05-31T08:22:35.420Z,22.20
2018-05-31T08:25:03.683Z,22.00
2018-05-31T08:27:32.124Z,22.00
2018-05-31T08:29:59.633Z,22.00
2018-05-31T08:32:27.937Z,22.00
2018-05-31T08:34:55.450Z,22.00
2018-05-31T08:37:23.736Z,22.20
2018-05-31T08:39:52.060Z,22.30
2018-05-31T08:42:19.590Z,22.30
2018-05-31T08:44:49.236Z,22.30
2018-05-31T08:47:17.074Z,22.30
2018-05-31T08:52:18.671Z,22.40
2018-05-31T08:54:46.213Z,22.60
2018-05-31T08:57:13.722Z,22.70
2018-05-31T08:59:42.014Z,22.70
2018-05-31T09:02:09.584Z,22.70
2018-05-31T09:04:37.127Z,22.70
2018-05-31T09:07:05.431Z,22.50
2018-05-31T09:09:32.980Z,22.40
2018-05-31T09:12:00.586Z,22.40
2018-05-31T09:14:28.174Z,22.40
2018-05-31T09:16:56.462Z,22.50
2018-05-31T09:19:24.009Z,22.50
2018-05-31T09:21:52.296Z,22.90
2018-05-31T09:24:19.816Z,22.90
2018-05-31T09:26:50.572Z,23.40
2018-05-31T09:29:18.991Z,24.60
2018-05-31T09:31:46.629Z,24.60
2018-05-31T09:34:14.908Z,25.30
2018-05-31T09:36:42.472Z,25.30
2018-05-31T09:39:09.984Z,26.20
2018-05-31T09:41:37.508Z,26.90
2018-05-31T09:44:05.003Z,27.30
2018-05-31T09:46:32.621Z,26.30
2018-05-31T09:49:00.159Z,25.90
2018-05-31T09:51:27.701Z,25.30
2018-05-31T09:53:55.983Z,25.40
2018-05-31T09:56:24.381Z,25.30
2018-05-31T09:58:51.943Z,25.30
2018-05-31T10:01:19.446Z,25.70
2018-05-31T10:03:47.008Z,25.80
2018-05-31T10:06:14.538Z,26.20
2018-05-31T10:08:42.094Z,27.20
2018-05-31T10:11:09.673Z,27.20
2018-05-31T10:13:37.296Z,27.80
2018-05-31T10:16:04.796Z,27.00
2018-05-31T10:18:32.372Z,26.60
2018-05-31T10:21:00.789Z,26.40
2018-05-31T10:23:28.674Z,26.40
2018-05-31T10:25:56.472Z,26.20
2018-05-31T10:28:24.076Z,26.20
2018-05-31T10:30:51.748Z,26.10
2018-05-31T10:33:19.415Z,26.40
2018-05-31T10:35:46.923Z,26.80
2018-05-31T10:38:14.507Z,26.90
2018-05-31T10:40:42.157Z,26.50
2018-05-31T10:43:10.480Z,26.20
2018-05-31T10:45:38.120Z,26.20
2018-05-31T10:48:05.690Z,26.20
2018-05-31T10:50:33.278Z,26.50
2018-05-31T10:53:00.902Z,26.40
2018-05-31T10:55:29.075Z,26.20
2018-05-31T10:57:56.655Z,26.30
2018-05-31T11:00:24.274Z,26.00
2018-05-31T11:02:51.813Z,25.90
2018-05-31T11:05:20.272Z,25.10
2018-05-31T11:07:47.824Z,25.10
2018-05-31T11:10:15.380Z,24.80
2018-05-31T11:12:42.980Z,24.40
2018-05-31T11:15:10.647Z,24.30
2018-05-31T11:17:38.422Z,24.50
2018-05-31T11:20:06.167Z,24.80
2018-05-31T11:22:33.849Z,24.90
2018-05-31T11:25:01.559Z,24.90
2018-05-31T11:27:30.094Z,24.50
2018-05-31T11:29:57.710Z,24.50
2018-05-31T11:32:26.191Z,24.80
2018-05-31T11:34:54.667Z,24.60
2018-05-31T11:37:23.143Z,24.90
2018-05-31T11:39:51.565Z,25.20
2018-05-31T11:42:19.596Z,25.20
2018-05-31T11:44:48.041Z,25.60
2018-05-31T11:47:15.751Z,25.60
2018-05-31T11:49:44.051Z,26.40
2018-05-31T11:52:11.688Z,26.40
2018-05-31T11:54:39.995Z,26.50
2018-05-31T11:57:07.528Z,26.50
2018-05-31T11:59:35.101Z,26.60
2018-05-31T12:02:02.624Z,26.50
2018-05-31T12:04:30.969Z,26.20
2018-05-31T12:06:58.523Z,26.20
2018-05-31T12:09:26.066Z,26.60
2018-05-31T12:11:53.721Z,27.00
2018-05-31T12:14:21.304Z,26.70
2018-05-31T12:16:48.883Z,26.80
2018-05-31T12:19:16.524Z,26.50
2018-05-31T12:21:44.035Z,26.50
2018-05-31T12:24:11.648Z,26.60
2018-05-31T12:26:39.271Z,26.50
2018-05-31T12:29:06.907Z,26.60
2018-05-31T12:31:35.238Z,26.50
2018-05-31T12:34:02.823Z,26.50
2018-05-31T12:36:30.643Z,26.40
2018-05-31T12:38:58.218Z,25.80
2018-05-31T12:41:25.763Z,26.20
2018-05-31T12:43:53.293Z,26.20
2018-05-31T12:46:20.818Z,26.20
2018-05-31T12:48:49.129Z,26.60
2018-05-31T12:51:16.811Z,26.60
2018-05-31T12:53:44.364Z,26.00
2018-05-31T12:56:12.658Z,26.50
2018-05-31T12:58:40.202Z,26.40
2018-05-31T13:01:07.728Z,26.70
2018-05-31T13:03:35.322Z,27.10
2018-05-31T13:06:02.999Z,26.90
2018-05-31T13:08:31.279Z,26.90
2018-05-31T13:10:58.861Z,26.90
2018-05-31T13:13:27.308Z,26.90
2018-05-31T13:15:54.864Z,27.00
2018-05-31T13:18:22.410Z,26.90
2018-05-31T13:20:50.064Z,26.80
2018-05-31T13:23:17.572Z,26.90
2018-05-31T13:25:45.932Z,27.40
2018-05-31T13:28:14.314Z,27.20
2018-05-31T13:30:41.854Z,27.10
2018-05-31T13:33:09.403Z,26.50
2018-05-31T13:35:36.961Z,26.60
2018-05-31T13:38:04.486Z,26.60
2018-05-31T13:40:32.070Z,26.80
2018-05-31T13:42:59.609Z,27.10
2018-05-31T13:45:27.207Z,26.80
2018-05-31T13:47:54.788Z,26.50
2018-05-31T13:50:22.312Z,26.50
2018-05-31T13:52:50.118Z,26.90
2018-05-31T13:55:17.725Z,27.10
2018-05-31T13:57:45.258Z,27.20
2018-05-31T14:00:13.549Z,27.60
2018-05-31T14:02:41.080Z,27.50
2018-05-31T14:05:09.508Z,27.80
2018-05-31T14:07:37.054Z,27.80
2018-05-31T14:10:04.674Z,27.90
2018-05-31T14:12:32.985Z,27.90
2018-05-31T14:15:00.571Z,27.90
2018-05-31T14:17:28.128Z,27.90
2018-05-31T14:19:55.652Z,28.10
2018-05-31T14:22:23.224Z,28.30
2018-05-31T14:24:51.725Z,28.20
2018-05-31T14:27:19.259Z,28.20
2018-05-31T14:29:46.856Z,28.30
2018-05-31T14:32:14.398Z,28.40
2018-05-31T14:34:41.941Z,28.50
2018-05-31T14:37:09.458Z,28.30
2018-05-31T14:39:37.758Z,28.20
2018-05-31T14:42:05.324Z,28.20
2018-05-31T14:44:33.082Z,28.60
2018-05-31T14:47:00.623Z,28.80
2018-05-31T14:49:28.927Z,28.30
2018-05-31T14:51:56.483Z,28.30
2018-05-31T14:54:23.998Z,28.10
2018-05-31T14:56:52.471Z,27.80
2018-05-31T14:59:19.978Z,27.90
2018-05-31T15:01:47.559Z,27.90
2018-05-31T15:04:15.104Z,28.10
2018-05-31T15:06:42.845Z,28.00
2018-05-31T15:09:10.358Z,28.40
2018-05-31T15:11:37.885Z,28.20
2018-05-31T15:14:05.442Z,28.40
2018-05-31T15:16:32.993Z,28.40
2018-05-31T15:19:00.756Z,28.50
2018-05-31T15:21:28.338Z,28.50
2018-05-31T15:23:55.880Z,28.10
2018-05-31T15:26:23.419Z,28.00
2018-05-31T15:28:50.957Z,28.10
2018-05-31T15:31:18.520Z,28.20
2018-05-31T15:33:46.044Z,28.40
2018-05-31T15:36:13.564Z,28.30
2018-05-31T15:38:41.554Z,28.10
2018-05-31T15:41:09.482Z,28.00
2018-05-31T15:43:37.439Z,27.80
2018-05-31T15:46:06.198Z,27.70
2018-05-31T15:48:33.797Z,27.70
2018-05-31T15:51:01.356Z,27.60
2018-05-31T15:53:28.898Z,27.60
2018-05-31T15:55:57.271Z,27.70
2018-05-31T15:58:25.635Z,27.70
2018-05-31T16:00:53.289Z,27.70
2018-05-31T16:03:21.271Z,27.70
2018-05-31T16:05:49.175Z,27.80
2018-05-31T16:08:16.728Z,27.90
2018-05-31T16:10:44.431Z,28.00
2018-05-31T16:13:11.966Z,28.00
2018-05-31T16:15:39.545Z,28.00
2018-05-31T16:18:07.145Z,27.70
2018-05-31T16:20:35.477Z,27.50
2018-05-31T16:23:03.000Z,27.50
2018-05-31T16:25:30.558Z,27.60
2018-05-31T16:27:58.099Z,27.70
2018-05-31T16:30:25.625Z,27.70
2018-05-31T16:32:53.236Z,27.50
2018-05-31T16:35:20.917Z,27.40
2018-05-31T16:37:48.431Z,27.40
2018-05-31T16:40:16.770Z,27.40
2018-05-31T16:42:44.333Z,27.40
2018-05-31T16:45:11.919Z,27.50
2018-05-31T16:47:40.240Z,27.20
2018-05-31T16:50:07.903Z,27.20
2018-05-31T16:52:35.381Z,27.20
2018-05-31T16:55:02.991Z,27.30
2018-05-31T16:57:30.726Z,27.30
2018-05-31T16:59:59.781Z,27.20
2018-05-31T17:02:27.346Z,27.10
2018-05-31T17:04:54.877Z,27.20
2018-05-31T17:07:22.437Z,27.10
2018-05-31T17:09:49.961Z,27.00
2018-05-31T17:12:18.364Z,26.80
2018-05-31T17:14:45.882Z,26.80
2018-05-31T17:17:13.439Z,26.80
2018-05-31T17:19:41.764Z,26.90
2018-05-31T17:22:09.336Z,26.90
2018-05-31T17:24:36.871Z,26.90
2018-05-31T17:27:04.394Z,26.80
2018-05-31T17:29:32.670Z,26.60
2018-05-31T17:32:00.217Z,26.60
2018-05-31T17:34:27.939Z,26.50
2018-05-31T17:36:56.465Z,26.50
2018-05-31T17:39:24.743Z,26.40
2018-05-31T17:41:55.269Z,26.40
2018-05-31T17:44:22.809Z,26.30
2018-05-31T17:46:50.377Z,26.30
2018-05-31T17:49:17.898Z,26.40
2018-05-31T17:51:46.384Z,26.30
2018-05-31T17:54:13.901Z,26.30
2018-05-31T17:56:42.303Z,26.20
2018-05-31T17:59:09.872Z,26.20
2018-05-31T18:01:37.707Z,26.20
2018-05-31T18:04:06.319Z,26.10
2018-05-31T18:06:33.905Z,26.10
2018-05-31T18:09:01.619Z,26.00
2018-05-31T18:11:30.820Z,26.00
2018-05-31T18:13:58.410Z,25.90
2018-05-31T18:16:25.963Z,25.90
2018-05-31T18:19:08.165Z,25.90
2018-05-31T18:21:35.822Z,25.90
2018-05-31T18:24:03.534Z,25.80
2018-05-31T18:26:31.834Z,25.80
2018-05-31T18:28:59.533Z,25.70
2018-05-31T18:31:27.120Z,25.70
2018-05-31T18:33:54.682Z,25.70
2018-05-31T18:36:23.156Z,25.60
2018-05-31T18:38:50.894Z,25.60
2018-05-31T18:41:18.477Z,25.50
2018-05-31T18:43:46.014Z,25.40
2018-05-31T18:46:14.950Z,25.40
2018-05-31T18:48:43.257Z,25.30
2018-05-31T18:51:11.727Z,25.30
2018-05-31T18:53:39.273Z,25.20
2018-05-31T18:56:07.608Z,25.10
2018-05-31T18:58:38.613Z,25.00
2018-05-31T19:01:06.206Z,25.00
2018-05-31T19:03:34.417Z,25.00
2018-05-31T19:06:02.742Z,24.90
2018-05-31T19:08:30.337Z,24.90
2018-05-31T19:10:59.474Z,24.90
2018-05-31T19:13:32.663Z,24.90
2018-05-31T19:16:00.350Z,24.90
2018-05-31T19:18:33.497Z,24.90
2018-05-31T19:21:02.560Z,25.00
2018-05-31T19:23:30.102Z,24.90
2018-05-31T19:25:57.671Z,24.90
2018-05-31T19:28:25.227Z,24.90
2018-05-31T19:30:58.216Z,24.80
2018-05-31T19:33:25.788Z,24.70
2018-05-31T19:35:59.013Z,24.60
2018-05-31T19:38:26.586Z,24.60
2018-05-31T19:40:54.100Z,24.50
2018-05-31T19:43:28.044Z,24.30
2018-05-31T19:45:55.565Z,24.30
2018-05-31T19:48:24.717Z,24.20
2018-05-31T19:50:52.240Z,24.20
2018-05-31T19:53:25.656Z,24.10
2018-05-31T19:55:53.215Z,24.10
2018-05-31T19:58:26.427Z,24.00
2018-05-31T20:01:03.939Z,23.90
2018-05-31T20:03:31.467Z,24.00
2018-05-31T20:05:59.009Z,23.90
2018-05-31T20:08:26.561Z,23.90
2018-05-31T20:10:54.132Z,23.80
2018-05-31T20:13:21.664Z,23.70
2018-05-31T20:15:49.173Z,23.80
2018-05-31T20:18:17.461Z,23.70
2018-05-31T20:20:45.399Z,23.70
2018-05-31T20:23:12.941Z,23.70
2018-05-31T20:25:40.458Z,23.60
2018-05-31T20:28:11.139Z,23.60
2018-05-31T20:30:38.817Z,23.60
2018-05-31T20:33:06.242Z,23.60
2018-05-31T20:35:34.251Z,23.50
2018-05-31T20:38:01.780Z,23.50
2018-05-31T20:40:29.409Z,23.50
2018-05-31T20:42:57.261Z,23.50
2018-05-31T20:45:25.835Z,23.40
2018-05-31T20:47:53.353Z,23.40
2018-05-31T20:50:20.856Z,23.40
2018-05-31T20:52:48.936Z,23.30
2018-05-31T20:55:18.030Z,23.30
2018-05-31T20:57:46.332Z,23.30
2018-05-31T21:00:13.891Z,23.20
2018-05-31T21:02:41.840Z,23.30
2018-05-31T21:05:10.338Z,23.20
2018-05-31T21:07:51.871Z,23.20
2018-05-31T21:10:19.427Z,23.10
2018-05-31T21:12:46.968Z,23.00
2018-05-31T21:15:14.789Z,22.90
2018-05-31T21:17:49.239Z,22.90
2018-05-31T21:20:18.765Z,22.70
2018-05-31T21:22:46.347Z,22.60
2018-05-31T21:25:13.971Z,22.60
2018-05-31T21:27:42.978Z,22.50
2018-05-31T21:30:10.510Z,22.50
2018-05-31T21:32:38.113Z,22.40
2018-05-31T21:35:06.943Z,22.40
2018-05-31T21:37:34.630Z,22.30
2018-05-31T21:40:03.700Z,22.30
2018-05-31T21:42:31.248Z,22.20
2018-05-31T21:44:58.824Z,22.20
2018-05-31T21:47:26.323Z,22.10
2018-05-31T21:49:54.416Z,22.10
2018-05-31T21:52:22.901Z,22.10
2018-05-31T21:54:51.300Z,22.00
2018-05-31T21:57:18.826Z,22.00
2018-05-31T21:59:46.431Z,22.00
2018-05-31T22:02:14.846Z,21.90
2018-05-31T22:04:43.249Z,21.90
2018-05-31T22:07:11.676Z,21.80
2018-05-31T22:09:39.242Z,21.80
2018-05-31T22:12:06.943Z,21.80
2018-05-31T22:14:34.643Z,21.80
2018-05-31T22:17:02.205Z,21.80
2018-05-31T22:19:29.880Z,21.70
2018-05-31T22:21:57.432Z,21.70
2018-05-31T22:24:24.962Z,21.70
2018-05-31T22:26:53.288Z,21.70
2018-05-31T22:29:20.915Z,21.60
2018-05-31T22:31:48.431Z,21.70
2018-05-31T22:34:17.162Z,21.70
2018-05-31T22:36:44.711Z,21.70
2018-05-31T22:39:12.349Z,21.60
2018-05-31T22:41:39.908Z,21.60
2018-05-31T22:44:08.206Z,21.60
2018-05-31T22:46:35.772Z,21.60
2018-05-31T22:49:03.336Z,21.60
2018-05-31T22:51:30.883Z,21.60
2018-05-31T22:53:58.428Z,21.60
2018-05-31T22:56:25.965Z,21.50
2018-05-31T22:58:54.274Z,21.40
2018-05-31T23:01:21.829Z,21.40
2018-05-31T23:03:49.393Z,21.30
2018-05-31T23:06:17.006Z,21.30
2018-05-31T23:08:44.712Z,21.30
2018-05-31T23:11:12.239Z,21.30
2018-05-31T23:13:40.576Z,21.30
2018-05-31T23:16:08.119Z,21.30
2018-05-31T23:18:35.750Z,21.30
2018-05-31T23:21:03.307Z,21.30
2018-05-31T23:23:30.894Z,21.30
2018-05-31T23:25:58.448Z,21.30
2018-05-31T23:28:25.972Z,21.20
2018-05-31T23:30:54.263Z,21.20
2018-05-31T23:33:21.841Z,21.20
2018-05-31T23:35:49.496Z,21.20
2018-05-31T23:38:17.131Z,21.20
2018-05-31T23:40:45.393Z,21.20
2018-05-31T23:43:13.680Z,21.20
2018-05-31T23:45:41.992Z,21.20
2018-05-31T23:48:09.549Z,21.20
2018-05-31T23:50:37.129Z,21.20
2018-05-31T23:53:04.645Z,21.10
2018-05-31T23:55:32.222Z,21.10
2018-05-31T23:57:59.777Z,21.00
